createdAt,value
2023-01-19T00:01:24.680Z,17.58
2023-01-19T00:03:53.678Z,16.02
2023-01-19T00:06:21.501Z,16.60
2023-01-19T00:08:51.171Z,17.58
2023-01-19T00:11:19.366Z,17.90
2023-01-19T00:13:50.385Z,17.00
2023-01-19T00:16:19.141Z,17.67
2023-01-19T00:18:47.228Z,18.55
2023-01-19T00:21:16.251Z,16.75
2023-01-19T00:23:47.323Z,17.42
2023-01-19T00:26:17.225Z,17.70
2023-01-19T00:28:45.436Z,16.75
2023-01-19T00:31:13.509Z,16.52
2023-01-19T00:33:41.170Z,16.55
2023-01-19T00:36:09.855Z,16.45
2023-01-19T00:38:39.741Z,17.10
2023-01-19T00:41:07.721Z,15.77
2023-01-19T00:43:34.401Z,16.45
2023-01-19T00:46:02.140Z,17.20
2023-01-19T00:48:30.685Z,15.82
2023-01-19T00:50:59.983Z,16.02
2023-01-19T00:53:28.456Z,15.02
2023-01-19T00:56:00.506Z,16.25
2023-01-19T00:58:28.391Z,15.65
2023-01-19T01:00:57.775Z,16.48
2023-01-19T01:03:27.991Z,15.52
2023-01-19T01:05:55.956Z,14.80
2023-01-19T01:08:23.678Z,14.85
2023-01-19T01:10:54.422Z,12.98
2023-01-19T01:13:27.914Z,14.30
2023-01-19T01:15:56.777Z,13.98
2023-01-19T01:18:25.632Z,14.82
2023-01-19T01:20:55.339Z,14.77
2023-01-19T01:23:24.013Z,14.82
2023-01-19T01:25:52.254Z,15.30
2023-01-19T01:28:20.085Z,13.63
2023-01-19T01:30:49.183Z,13.60
2023-01-19T01:33:41.340Z,14.73
2023-01-19T01:36:04.789Z,13.93
2023-01-19T01:38:32.444Z,13.88
2023-01-19T01:41:00.093Z,14.65
2023-01-19T01:43:43.704Z,14.73
2023-01-19T01:46:16.151Z,14.07
2023-01-19T01:48:50.039Z,14.13
2023-01-19T01:51:27.305Z,14.45
2023-01-19T01:54:09.868Z,14.65
2023-01-19T01:56:40.820Z,14.35
2023-01-19T01:59:13.749Z,14.77
2023-01-19T02:02:00.294Z,15.85
2023-01-19T02:04:28.635Z,14.15
2023-01-19T02:07:13.678Z,14.48
2023-01-19T02:09:59.602Z,14.40
2023-01-19T02:12:47.118Z,14.82
2023-01-19T02:15:20.775Z,14.52
2023-01-19T02:17:50.909Z,13.68
2023-01-19T02:20:20.848Z,13.70
2023-01-19T02:22:51.160Z,13.32
2023-01-19T02:25:21.116Z,12.68
2023-01-19T02:27:50.090Z,11.48
2023-01-19T02:30:19.464Z,11.93
2023-01-19T02:32:47.189Z,10.30
2023-01-19T02:35:14.972Z,10.18
2023-01-19T02:37:45.270Z,9.73
2023-01-19T02:40:15.944Z,10.15
2023-01-19T02:42:49.449Z,9.70
2023-01-19T02:45:20.913Z,8.65
2023-01-19T02:47:51.045Z,9.23
2023-01-19T02:50:43.512Z,10.25
2023-01-19T02:53:24.708Z,9.20
2023-01-19T02:55:58.123Z,9.35
2023-01-19T02:58:35.245Z,8.48
2023-01-19T03:01:16.911Z,9.40
2023-01-19T03:03:53.492Z,9.32
2023-01-19T03:06:34.415Z,9.50
2023-01-19T03:09:07.027Z,9.60
2023-01-19T03:11:40.112Z,9.88
2023-01-19T03:14:13.524Z,9.10
2023-01-19T03:16:44.125Z,10.00
2023-01-19T03:19:17.354Z,9.85
2023-01-19T03:21:50.577Z,10.80
2023-01-19T03:24:21.517Z,10.65
2023-01-19T03:26:56.066Z,11.23
2023-01-19T03:29:29.128Z,11.05
2023-01-19T03:32:01.089Z,11.70
2023-01-19T03:34:29.762Z,12.13
2023-01-19T03:37:03.065Z,12.27
2023-01-19T03:39:30.924Z,12.57
2023-01-19T03:42:02.184Z,13.50
2023-01-19T03:44:35.120Z,12.68
2023-01-19T03:47:04.166Z,13.85
2023-01-19T03:49:32.409Z,14.00
2023-01-19T03:52:00.529Z,13.35
2023-01-19T03:54:28.282Z,14.95
2023-01-19T03:56:59.203Z,14.73
2023-01-19T03:59:26.951Z,14.38
2023-01-19T04:01:56.961Z,15.07
2023-01-19T04:04:27.218Z,14.90
2023-01-19T04:06:54.849Z,15.00
2023-01-19T04:09:22.477Z,15.13
2023-01-19T04:11:51.325Z,13.32
2023-01-19T04:14:19.228Z,15.63
2023-01-19T04:16:46.933Z,15.82
2023-01-19T04:19:16.119Z,15.63
2023-01-19T04:21:43.820Z,16.15
2023-01-19T04:24:11.859Z,16.52
2023-01-19T04:26:39.541Z,15.93
2023-01-19T04:29:07.203Z,15.95
2023-01-19T04:31:35.662Z,15.50
2023-01-19T04:34:03.453Z,16.73
2023-01-19T04:36:32.526Z,15.35
2023-01-19T04:39:00.190Z,16.25
2023-01-19T04:41:29.111Z,16.52
2023-01-19T04:43:57.926Z,16.05
2023-01-19T04:46:25.771Z,17.13
2023-01-19T04:48:53.455Z,16.52
2023-01-19T04:51:21.164Z,17.17
2023-01-19T04:53:50.268Z,17.50
2023-01-19T04:56:17.950Z,16.42
2023-01-19T04:58:45.687Z,17.50
2023-01-19T05:01:13.413Z,17.10
2023-01-19T05:03:41.239Z,16.73
2023-01-19T05:06:09.075Z,18.85
2023-01-19T05:08:36.746Z,17.75
2023-01-19T05:11:06.235Z,18.40
2023-01-19T05:13:34.443Z,18.27
2023-01-19T05:16:02.409Z,17.55
2023-01-19T05:18:35.889Z,18.52
2023-01-19T05:21:03.670Z,18.35
2023-01-19T05:23:32.618Z,18.25
2023-01-19T05:26:01.987Z,19.45
2023-01-19T05:28:32.980Z,18.23
2023-01-19T05:31:00.953Z,19.52
2023-01-19T05:33:29.237Z,18.52
2023-01-19T05:35:57.237Z,19.02
2023-01-19T05:38:34.547Z,18.17
2023-01-19T05:41:03.101Z,18.80
2023-01-19T05:43:32.239Z,17.75
2023-01-19T05:46:00.161Z,18.83
2023-01-19T05:48:27.890Z,18.05
2023-01-19T05:50:58.937Z,17.95
2023-01-19T05:53:26.904Z,17.88
2023-01-19T05:56:01.174Z,18.30
2023-01-19T05:58:29.423Z,18.20
2023-01-19T06:00:58.487Z,18.40
2023-01-19T06:03:26.280Z,18.98
2023-01-19T06:05:54.013Z,20.05
2023-01-19T06:08:21.700Z,19.05
2023-01-19T06:10:49.388Z,19.02
2023-01-19T06:13:17.403Z,18.52
2023-01-19T06:15:45.497Z,19.75
2023-01-19T06:18:15.796Z,19.40
2023-01-19T06:20:43.492Z,20.80
2023-01-19T06:23:11.567Z,20.02
2023-01-19T06:25:39.317Z,20.48
2023-01-19T06:28:07.094Z,21.33
2023-01-19T06:30:34.926Z,21.20
2023-01-19T06:33:03.017Z,21.17
2023-01-19T06:35:32.221Z,22.63
2023-01-19T06:37:59.964Z,21.45
2023-01-19T06:40:27.672Z,21.80
2023-01-19T06:42:55.558Z,20.67
2023-01-19T06:45:23.251Z,21.02
2023-01-19T06:47:51.032Z,21.23
2023-01-19T06:50:21.469Z,21.35
2023-01-19T06:52:52.187Z,20.42
2023-01-19T06:55:20.148Z,20.27
2023-01-19T06:57:47.880Z,20.27
2023-01-19T07:00:16.847Z,20.58
2023-01-19T07:02:47.339Z,21.25
2023-01-19T07:05:15.079Z,20.23
2023-01-19T07:07:44.738Z,20.80
2023-01-19T07:10:15.636Z,21.70
2023-01-19T07:12:46.398Z,20.80
2023-01-19T07:15:14.763Z,20.52
2023-01-19T07:17:43.065Z,21.92
2023-01-19T07:20:13.040Z,19.33
2023-01-19T07:22:41.080Z,20.00
2023-01-19T07:25:09.471Z,19.55
2023-01-19T07:27:38.609Z,18.58
2023-01-19T07:30:07.644Z,18.88
2023-01-19T07:32:35.893Z,18.40
2023-01-19T07:35:06.214Z,17.42
2023-01-19T07:37:33.982Z,18.95
2023-01-19T07:40:01.833Z,18.33
2023-01-19T07:42:29.679Z,17.67
2023-01-19T07:44:58.741Z,17.35
2023-01-19T07:47:26.436Z,17.27
2023-01-19T07:49:54.137Z,18.25
2023-01-19T07:52:22.919Z,17.02
2023-01-19T07:54:51.295Z,17.00
2023-01-19T07:57:19.385Z,16.70
2023-01-19T07:59:47.064Z,17.20
2023-01-19T08:02:17.329Z,17.40
2023-01-19T08:04:45.101Z,16.20
2023-01-19T08:07:13.415Z,16.05
2023-01-19T08:09:41.237Z,16.77
2023-01-19T08:12:09.020Z,15.35
2023-01-19T08:14:36.779Z,16.42
2023-01-19T08:17:05.011Z,16.63
2023-01-19T08:19:34.074Z,16.00
2023-01-19T08:22:02.417Z,16.33
2023-01-19T08:24:30.297Z,15.90
2023-01-19T08:27:01.922Z,15.80
2023-01-19T08:29:30.736Z,18.75
2023-01-19T08:32:03.207Z,16.77
2023-01-19T08:34:32.055Z,17.38
2023-01-19T08:37:01.296Z,14.98
2023-01-19T08:39:29.054Z,15.93
2023-01-19T08:41:56.967Z,15.68
2023-01-19T08:44:24.664Z,14.35
2023-01-19T08:46:52.353Z,15.82
2023-01-19T08:49:20.052Z,14.52
2023-01-19T08:51:49.072Z,13.93
2023-01-19T08:54:18.714Z,13.95
2023-01-19T08:56:46.566Z,13.57
2023-01-19T08:59:14.399Z,15.65
2023-01-19T09:01:42.236Z,13.55
2023-01-19T09:04:10.068Z,14.27
2023-01-19T09:06:37.825Z,13.43
2023-01-19T09:09:05.654Z,13.95
2023-01-19T09:11:35.018Z,13.00
2023-01-19T09:14:03.222Z,13.20
2023-01-19T09:16:30.942Z,13.43
2023-01-19T09:18:59.249Z,13.27
2023-01-19T09:21:27.019Z,14.60
2023-01-19T09:23:54.858Z,14.75
2023-01-19T09:26:23.730Z,14.25
2023-01-19T09:28:52.985Z,11.43
2023-01-19T09:31:21.532Z,11.95
2023-01-19T09:33:49.403Z,12.80
2023-01-19T09:36:17.131Z,13.57
2023-01-19T09:38:44.826Z,13.00
2023-01-19T09:41:21.063Z,12.75
2023-01-19T09:43:52.499Z,13.75
2023-01-19T09:46:28.511Z,12.32
2023-01-19T09:48:58.177Z,12.77
2023-01-19T09:51:28.598Z,12.85
2023-01-19T09:54:03.105Z,12.73
2023-01-19T09:56:32.133Z,11.90
2023-01-19T09:59:01.335Z,11.82
2023-01-19T10:01:42.286Z,12.15
2023-01-19T10:04:27.901Z,12.80
2023-01-19T10:07:04.402Z,11.70
2023-01-19T10:09:37.910Z,12.23
2023-01-19T10:12:17.951Z,10.55
2023-01-19T10:14:54.991Z,9.50
2023-01-19T10:17:37.727Z,10.63
2023-01-19T10:20:12.934Z,11.48
2023-01-19T10:22:43.322Z,10.75
2023-01-19T10:25:19.764Z,10.32
2023-01-19T10:27:47.999Z,9.52
2023-01-19T10:30:23.143Z,9.95
2023-01-19T10:32:52.808Z,9.30
2023-01-19T10:35:24.441Z,9.55
2023-01-19T10:37:53.907Z,8.07
2023-01-19T10:40:30.248Z,9.60
2023-01-19T10:42:59.092Z,8.98
2023-01-19T10:45:30.157Z,9.60
2023-01-19T10:48:06.381Z,8.50
2023-01-19T10:50:37.020Z,9.05
2023-01-19T10:53:06.565Z,8.43
2023-01-19T10:55:37.970Z,8.85
2023-01-19T10:58:07.355Z,7.78
2023-01-19T11:00:38.006Z,8.10
2023-01-19T11:03:23.948Z,7.32
2023-01-19T11:08:25.022Z,8.07
2023-01-19T11:11:02.342Z,6.40
2023-01-19T11:13:30.092Z,7.20
2023-01-19T11:16:00.307Z,6.95
2023-01-19T11:18:32.596Z,6.70
2023-01-19T11:21:02.774Z,6.30
2023-01-19T11:23:34.222Z,6.18
2023-01-19T11:26:06.561Z,5.40
2023-01-19T11:28:37.467Z,5.35
2023-01-19T11:31:18.959Z,4.78
2023-01-19T11:33:52.797Z,6.40
2023-01-19T11:36:22.227Z,6.47
2023-01-19T11:38:51.856Z,5.65
2023-01-19T11:41:22.037Z,5.25
2023-01-19T11:43:53.261Z,5.55
2023-01-19T11:46:24.812Z,5.25
2023-01-19T11:49:02.104Z,5.03
2023-01-19T11:51:36.663Z,4.05
2023-01-19T11:54:14.875Z,4.10
2023-01-19T11:56:43.640Z,5.68
2023-01-19T11:59:13.804Z,5.43
2023-01-19T12:01:46.609Z,5.10
2023-01-19T12:04:21.103Z,5.40
2023-01-19T12:06:53.887Z,5.10
2023-01-19T12:09:25.269Z,5.38
2023-01-19T12:11:58.251Z,5.22
2023-01-19T12:14:32.900Z,4.97
2023-01-19T12:17:04.071Z,6.13
2023-01-19T12:19:43.334Z,6.00
2023-01-19T12:22:14.762Z,5.10
2023-01-19T12:24:48.160Z,5.55
2023-01-19T12:27:23.534Z,5.50
2023-01-19T12:29:51.893Z,5.30
2023-01-19T12:32:32.609Z,5.47
2023-01-19T12:35:01.794Z,6.20
2023-01-19T12:37:37.798Z,5.38
2023-01-19T12:40:22.721Z,5.55
2023-01-19T12:42:57.967Z,5.47
2023-01-19T12:45:31.512Z,5.72
2023-01-19T12:47:59.598Z,5.45
2023-01-19T12:50:36.086Z,4.47
2023-01-19T12:53:07.885Z,4.95
2023-01-19T12:55:38.088Z,4.63
2023-01-19T12:58:09.122Z,4.80
2023-01-19T13:00:39.622Z,4.38
2023-01-19T13:03:46.573Z,4.97
2023-01-19T13:06:15.658Z,5.63
2023-01-19T13:09:01.250Z,5.32
2023-01-19T13:11:34.072Z,5.00
2023-01-19T13:14:34.451Z,5.18
2023-01-19T13:17:21.661Z,5.30
2023-01-19T13:20:04.405Z,4.70
2023-01-19T13:22:53.687Z,5.75
2023-01-19T13:25:35.448Z,6.75
2023-01-19T13:28:08.276Z,5.43
2023-01-19T13:30:38.062Z,5.60
2023-01-19T13:33:15.764Z,5.65
2023-01-19T13:35:52.313Z,5.30
2023-01-19T13:38:23.095Z,5.68
2023-01-19T13:40:51.455Z,5.03
2023-01-19T13:43:22.983Z,5.28
2023-01-19T13:45:53.586Z,5.68
2023-01-19T13:48:23.396Z,5.57
2023-01-19T13:51:03.981Z,6.25
2023-01-19T13:53:33.422Z,5.85
2023-01-19T13:56:21.913Z,6.13
2023-01-19T13:59:09.886Z,5.75
2023-01-19T14:01:39.600Z,5.68
2023-01-19T14:04:07.525Z,5.28
2023-01-19T14:06:40.682Z,5.90
2023-01-19T14:09:18.428Z,6.10
2023-01-19T14:11:47.694Z,5.38
2023-01-19T14:14:26.057Z,6.22
2023-01-19T14:16:54.368Z,6.55
2023-01-19T14:19:22.149Z,6.40
2023-01-19T14:22:00.647Z,5.88
2023-01-19T14:24:32.944Z,5.22
2023-01-19T14:27:19.378Z,5.30
2023-01-19T14:29:50.438Z,5.63
2023-01-19T14:32:20.612Z,5.80
2023-01-19T14:34:51.144Z,5.35
2023-01-19T14:37:24.797Z,5.05
2023-01-19T14:39:58.268Z,4.93
2023-01-19T14:42:30.633Z,5.22
2023-01-19T14:45:01.407Z,4.65
2023-01-19T14:47:40.140Z,4.68
2023-01-19T14:50:19.190Z,4.70
2023-01-19T14:52:53.593Z,4.57
2023-01-19T14:55:26.248Z,3.83
2023-01-19T14:57:55.645Z,4.75
2023-01-19T15:00:24.122Z,3.83
2023-01-19T15:02:51.832Z,4.30
2023-01-19T15:05:20.091Z,4.10
2023-01-19T15:07:48.538Z,5.00
2023-01-19T15:10:20.676Z,4.75
2023-01-19T15:12:50.313Z,4.93
2023-01-19T15:15:22.638Z,5.20
2023-01-19T15:17:51.465Z,6.05
2023-01-19T15:20:22.057Z,5.95
2023-01-19T15:22:50.696Z,5.68
2023-01-19T15:25:21.804Z,5.82
2023-01-19T15:27:51.219Z,5.57
2023-01-19T15:30:22.533Z,6.40
2023-01-19T15:32:50.350Z,5.97
2023-01-19T15:35:20.880Z,5.60
2023-01-19T15:37:49.727Z,6.15
2023-01-19T15:40:19.639Z,7.25
2023-01-19T15:42:47.663Z,5.40
2023-01-19T15:45:35.119Z,7.10
2023-01-19T15:48:04.995Z,6.65
2023-01-19T15:50:33.705Z,6.95
2023-01-19T15:53:01.749Z,8.77
2023-01-19T15:55:29.856Z,7.32
2023-01-19T15:58:01.508Z,17.23
2023-01-19T16:00:32.796Z,7.00
2023-01-19T16:03:01.898Z,6.47
2023-01-19T16:05:42.473Z,6.35
2023-01-19T16:08:12.172Z,6.50
2023-01-19T16:10:40.486Z,6.00
2023-01-19T16:13:08.557Z,6.72
2023-01-19T16:15:38.668Z,6.05
2023-01-19T16:18:06.963Z,6.40
2023-01-19T16:20:34.786Z,6.43
2023-01-19T16:23:14.487Z,7.78
2023-01-19T16:25:42.996Z,6.82
2023-01-19T16:28:10.703Z,6.15
2023-01-19T16:30:39.936Z,6.90
2023-01-19T16:33:08.474Z,6.90
2023-01-19T16:35:36.234Z,6.68
2023-01-19T16:38:04.047Z,7.18
2023-01-19T16:40:31.880Z,7.43
2023-01-19T16:42:59.593Z,7.70
2023-01-19T16:45:27.344Z,6.80
2023-01-19T16:47:56.604Z,7.57
2023-01-19T16:50:24.387Z,7.40
2023-01-19T16:52:57.325Z,7.30
2023-01-19T16:55:25.220Z,7.10
2023-01-19T16:57:52.939Z,6.90
2023-01-19T17:00:21.001Z,6.68
2023-01-19T17:02:48.728Z,6.90
2023-01-19T17:05:18.053Z,7.07
2023-01-19T17:07:46.281Z,6.70
2023-01-19T17:10:14.191Z,7.55
2023-01-19T17:12:41.916Z,6.90
2023-01-19T17:15:10.507Z,7.32
2023-01-19T17:17:38.211Z,7.72
2023-01-19T17:20:06.909Z,6.55
2023-01-19T17:22:35.992Z,7.13
2023-01-19T17:25:03.879Z,8.30
2023-01-19T17:27:35.885Z,8.32
2023-01-19T17:30:03.687Z,7.10
2023-01-19T17:32:31.358Z,7.35
2023-01-19T17:34:59.161Z,6.88
2023-01-19T17:37:26.860Z,6.75
2023-01-19T17:39:57.152Z,7.63
2023-01-19T17:42:25.015Z,6.63
2023-01-19T17:44:52.879Z,6.47
2023-01-19T17:47:24.632Z,7.18
2023-01-19T17:49:52.605Z,7.63
2023-01-19T17:52:20.346Z,7.93
2023-01-19T17:54:48.034Z,6.90
2023-01-19T17:57:17.125Z,7.47
2023-01-19T17:59:46.856Z,7.18
2023-01-19T18:02:14.713Z,7.15
2023-01-19T18:04:42.493Z,7.28
2023-01-19T18:07:10.256Z,7.05
2023-01-19T18:09:37.926Z,6.93
2023-01-19T18:12:05.954Z,7.53
2023-01-19T18:14:35.077Z,6.93
2023-01-19T18:17:02.758Z,7.30
2023-01-19T18:19:30.404Z,8.00
2023-01-19T18:21:58.342Z,8.10
2023-01-19T18:24:26.048Z,8.00
2023-01-19T18:26:55.679Z,7.82
2023-01-19T18:29:23.702Z,7.88
2023-01-19T18:31:52.806Z,9.50
2023-01-19T18:34:20.705Z,9.75
2023-01-19T18:36:48.431Z,7.63
2023-01-19T18:39:16.119Z,8.32
2023-01-19T18:41:43.851Z,7.75
2023-01-19T18:44:12.546Z,7.38
2023-01-19T18:46:40.369Z,7.18
2023-01-19T18:49:09.767Z,7.32
2023-01-19T18:51:39.496Z,8.02
2023-01-19T18:54:07.415Z,6.85
2023-01-19T18:56:35.219Z,6.35
2023-01-19T18:59:03.518Z,6.68
2023-01-19T19:01:34.936Z,6.63
2023-01-19T19:04:03.106Z,6.50
2023-01-19T19:06:32.157Z,6.78
2023-01-19T19:09:00.175Z,7.30
2023-01-19T19:11:28.841Z,7.38
2023-01-19T19:13:58.888Z,8.63
2023-01-19T19:16:26.910Z,8.05
2023-01-19T19:18:54.673Z,8.68
2023-01-19T19:21:25.135Z,8.43
2023-01-19T19:23:55.545Z,9.23
2023-01-19T19:26:24.317Z,10.57
2023-01-19T19:28:52.083Z,11.02
2023-01-19T19:31:21.259Z,9.43
2023-01-19T19:33:50.842Z,6.20
2023-01-19T19:36:19.811Z,5.10
2023-01-19T19:38:47.601Z,4.57
2023-01-19T19:41:20.717Z,5.50
2023-01-19T19:43:48.866Z,4.85
2023-01-19T19:46:19.880Z,4.63
2023-01-19T19:48:47.886Z,4.65
2023-01-19T19:51:19.007Z,4.88
2023-01-19T19:53:48.944Z,5.25
2023-01-19T19:56:21.878Z,5.10
2023-01-19T19:58:50.454Z,4.45
2023-01-19T20:01:20.155Z,5.07
2023-01-19T20:03:48.302Z,4.88
2023-01-19T20:06:18.021Z,4.72
2023-01-19T20:08:45.731Z,4.63
2023-01-19T20:11:15.404Z,4.50
2023-01-19T20:13:47.498Z,4.50
2023-01-19T20:16:16.827Z,4.03
2023-01-19T20:18:48.423Z,4.82
2023-01-19T20:21:17.861Z,4.53
2023-01-19T20:23:47.152Z,4.45
2023-01-19T20:26:17.005Z,4.07
2023-01-19T20:28:46.293Z,4.55
2023-01-19T20:31:17.898Z,5.10
2023-01-19T20:33:46.257Z,5.05
2023-01-19T20:36:14.045Z,4.68
2023-01-19T20:38:42.451Z,4.50
2023-01-19T20:41:12.399Z,5.13
2023-01-19T20:43:40.273Z,4.68
2023-01-19T20:46:09.476Z,4.90
2023-01-19T20:48:39.131Z,4.57
2023-01-19T20:51:08.939Z,4.43
2023-01-19T20:53:37.414Z,4.20
2023-01-19T20:56:06.260Z,4.28
2023-01-19T20:58:34.497Z,4.50
2023-01-19T21:01:12.120Z,4.90
2023-01-19T21:03:40.027Z,4.45
2023-01-19T21:06:08.438Z,4.55
2023-01-19T21:08:36.715Z,4.25
2023-01-19T21:11:05.569Z,4.65
2023-01-19T21:13:33.781Z,4.60
2023-01-19T21:16:01.985Z,4.40
2023-01-19T21:18:31.175Z,4.40
2023-01-19T21:20:59.035Z,4.40
2023-01-19T21:23:27.848Z,3.95
2023-01-19T21:25:57.074Z,4.75
2023-01-19T21:28:25.758Z,4.13
2023-01-19T21:30:55.008Z,4.45
2023-01-19T21:33:23.807Z,4.85
2023-01-19T21:35:54.170Z,4.57
2023-01-19T21:38:22.683Z,4.95
2023-01-19T21:40:51.163Z,4.88
2023-01-19T21:43:20.015Z,3.85
2023-01-19T21:45:49.172Z,4.80
2023-01-19T21:48:17.580Z,4.50
2023-01-19T21:50:45.622Z,5.05
2023-01-19T21:53:14.644Z,4.50
2023-01-19T21:55:45.875Z,4.22
2023-01-19T21:58:13.596Z,4.18
2023-01-19T22:00:41.427Z,4.38
2023-01-19T22:03:09.270Z,4.32
2023-01-19T22:05:37.955Z,4.60
2023-01-19T22:08:06.495Z,5.55
2023-01-19T22:10:38.011Z,6.22
2023-01-19T22:13:06.732Z,5.15
2023-01-19T22:15:34.504Z,4.93
2023-01-19T22:18:02.188Z,4.88
2023-01-19T22:20:30.117Z,4.32
2023-01-19T22:22:58.217Z,5.00
2023-01-19T22:25:27.794Z,5.13
2023-01-19T22:27:58.571Z,5.03
2023-01-19T22:30:26.486Z,4.38
2023-01-19T22:32:54.270Z,5.03
2023-01-19T22:35:22.226Z,4.97
2023-01-19T22:37:49.878Z,5.03
2023-01-19T22:40:18.257Z,5.70
2023-01-19T22:42:47.792Z,6.35
2023-01-19T22:45:16.932Z,6.45
2023-01-19T22:47:44.703Z,6.65
2023-01-19T22:50:12.841Z,6.63
2023-01-19T22:52:40.526Z,7.35
2023-01-19T22:55:08.650Z,7.47
2023-01-19T23:02:12.363Z,7.63
2023-01-19T23:04:40.493Z,7.88
2023-01-19T23:07:09.322Z,8.10
2023-01-19T23:09:38.351Z,8.75
2023-01-19T23:12:06.509Z,9.60
2023-01-19T23:14:34.616Z,10.00
2023-01-19T23:17:02.329Z,11.52
2023-01-19T23:19:31.545Z,12.95
2023-01-19T23:21:59.239Z,10.68
2023-01-19T23:24:27.219Z,10.90
2023-01-19T23:26:55.014Z,10.50
2023-01-19T23:29:23.304Z,9.68
2023-01-19T23:31:53.331Z,9.20
2023-01-19T23:34:21.026Z,9.05
2023-01-19T23:36:50.098Z,9.93
2023-01-19T23:39:20.285Z,8.95
2023-01-19T23:41:48.746Z,7.32
2023-01-19T23:44:17.027Z,7.93
2023-01-19T23:46:44.969Z,8.55
2023-01-19T23:49:12.949Z,7.93
2023-01-19T23:51:41.662Z,8.05
2023-01-19T23:54:12.168Z,7.60
2023-01-19T23:56:40.246Z,7.47
2023-01-19T23:59:11.247Z,7.90
